Time;durP1;ratioP1;P1;durP2;ratioP2;P2;SDS_P1;SDS_P2;PMS_P1;PMS_P2;Temp;Humidity;BMP_temperature;BMP_pressure;BME280_temperature;BME280_humidity;BME280_pressure;Samples;Min_cycle;Max_cycle;Signal;HPM_P1;HPM_P2
2021/08/31 00:00:36;;;;;;;11.02;7.40;;;;;;;13.70;100.00;99058.81;5012050;28;20050;-71
2021/08/31 00:03:01;;;;;;;12.02;7.55;;;;;;;13.69;100.00;99049.81;5003920;28;20030;-71
2021/08/31 00:05:27;;;;;;;11.88;7.00;;;;;;;13.85;100.00;99053.09;5013780;28;20041;-71
2021/08/31 00:07:52;;;;;;;13.20;7.63;;;;;;;13.76;100.00;99056.06;5015326;28;20065;-71
2021/08/31 00:10:18;;;;;;;13.00;7.68;;;;;;;13.75;100.00;99048.97;5015090;28;20022;-71
2021/08/31 00:12:43;;;;;;;11.38;7.43;;;;;;;13.79;100.00;99057.50;5016454;28;20033;-70
2021/08/31 00:15:09;;;;;;;11.88;7.68;;;;;;;13.75;100.00;99062.56;5012540;28;20033;-71
2021/08/31 00:17:35;;;;;;;10.82;7.13;;;;;;;13.90;100.00;99061.41;5014626;28;20037;-71
2021/08/31 00:20:00;;;;;;;13.63;7.32;;;;;;;13.81;100.00;99055.41;5015060;28;20034;-71
2021/08/31 00:22:26;;;;;;;10.15;6.32;;;;;;;13.85;100.00;99064.78;5014568;28;20101;-70
2021/08/31 00:24:51;;;;;;;9.70;7.18;;;;;;;13.94;100.00;99063.50;5014198;28;20085;-71
2021/08/31 00:27:16;;;;;;;10.73;7.20;;;;;;;13.86;100.00;99062.91;5008648;28;20037;-71
2021/08/31 00:29:42;;;;;;;13.13;7.85;;;;;;;13.85;100.00;99058.53;5009086;28;20045;-71
2021/08/31 00:32:08;;;;;;;14.02;8.85;;;;;;;13.80;100.00;99048.28;5000389;28;20065;-71
2021/08/31 00:34:33;;;;;;;12.23;7.55;;;;;;;13.84;100.00;99067.75;4999257;28;20030;-71
2021/08/31 00:36:58;;;;;;;11.98;8.18;;;;;;;13.86;100.00;99071.06;5014733;28;20030;-71
2021/08/31 00:39:24;;;;;;;10.73;7.13;;;;;;;13.80;100.00;99070.88;5012611;28;20104;-71
2021/08/31 00:41:49;;;;;;;10.70;7.55;;;;;;;13.84;100.00;99068.56;5013746;28;20416;-71
2021/08/31 00:44:22;;;;;;;11.55;7.55;;;;;;;13.86;100.00;99065.63;5013000;28;20045;-71
2021/08/31 00:46:49;;;;;;;12.90;7.20;;;;;;;13.79;100.00;99071.94;5016852;28;20488;-70
2021/08/31 00:49:15;;;;;;;11.20;7.68;;;;;;;13.89;100.00;99076.91;5010702;28;20030;-71
2021/08/31 00:51:40;;;;;;;10.32;7.00;;;;;;;13.84;100.00;99073.19;5000553;28;20113;-71
2021/08/31 00:54:05;;;;;;;10.40;7.65;;;;;;;13.75;100.00;99070.72;5011785;28;20036;-71
2021/08/31 00:56:31;;;;;;;11.27;6.95;;;;;;;13.72;100.00;99081.19;5011942;28;20025;-70
2021/08/31 00:58:56;;;;;;;10.15;6.93;;;;;;;13.69;100.00;99082.44;5002403;28;20700;-70
2021/08/31 01:01:21;;;;;;;11.02;7.78;;;;;;;13.68;100.00;99083.50;5014351;28;20499;-71
2021/08/31 01:03:47;;;;;;;11.02;7.57;;;;;;;13.67;100.00;99083.72;5013400;28;20030;-71
2021/08/31 01:06:12;;;;;;;14.88;8.60;;;;;;;13.57;100.00;99073.28;5013886;28;20484;-71
2021/08/31 01:08:38;;;;;;;13.55;8.02;;;;;;;13.70;100.00;99086.00;5012938;28;20083;-71
2021/08/31 01:11:04;;;;;;;13.80;8.30;;;;;;;13.51;100.00;99058.69;5008157;28;20038;-70
2021/08/31 01:13:32;;;;;;;11.48;7.35;;;;;;;13.66;100.00;99076.63;5012614;28;20527;-70
2021/08/31 01:15:57;;;;;;;10.55;7.15;;;;;;;13.58;100.00;99081.25;5014059;28;20053;-71
2021/08/31 01:18:23;;;;;;;8.65;6.45;;;;;;;13.47;100.00;99067.50;5002477;28;20057;-71
2021/08/31 01:20:50;;;;;;;10.25;6.55;;;;;;;13.36;100.00;99064.41;4994961;28;20030;-71
2021/08/31 01:23:16;;;;;;;10.13;6.32;;;;;;;13.37;100.00;99062.53;5002515;28;20037;-71
2021/08/31 01:25:43;;;;;;;9.80;6.78;;;;;;;13.62;100.00;99080.81;5010851;28;20029;-71
2021/08/31 01:28:24;;;;;;;14.55;9.50;;;;;;;13.74;100.00;99076.38;5003475;28;20168;-71
2021/08/31 01:30:50;;;;;;;13.07;9.27;;;;;;;13.64;100.00;99078.72;5009551;28;20079;-70
2021/08/31 01:33:16;;;;;;;15.25;9.48;;;;;;;13.65;100.00;99078.50;5007388;28;20037;-70
2021/08/31 01:35:42;;;;;;;14.48;8.95;;;;;;;13.66;100.00;99077.44;5007344;28;20030;-70
2021/08/31 01:38:07;;;;;;;14.02;8.70;;;;;;;13.53;100.00;99062.03;5002148;28;20060;-71
2021/08/31 01:40:32;;;;;;;15.32;9.65;;;;;;;13.57;100.00;99092.31;5006395;28;20037;-71
2021/08/31 01:42:58;;;;;;;15.23;9.65;;;;;;;13.42;100.00;99086.34;5011673;28;20060;-70
2021/08/31 01:45:24;;;;;;;13.20;9.35;;;;;;;13.41;100.00;99093.63;5010183;28;20026;-70
2021/08/31 01:47:49;;;;;;;15.80;9.98;;;;;;;13.34;100.00;99084.69;5013105;28;20037;-70
2021/08/31 01:50:14;;;;;;;17.50;9.98;;;;;;;13.23;100.00;99082.59;5025374;23;20042;-67
2021/08/31 01:52:40;;;;;;;15.45;10.00;;;;;;;13.21;100.00;99080.09;5010693;28;20522;-66
2021/08/31 01:55:06;;;;;;;13.32;8.88;;;;;;;13.29;100.00;99093.47;5013339;28;20030;-66
2021/08/31 01:57:32;;;;;;;15.32;9.52;;;;;;;13.27;100.00;99090.13;5005545;28;20064;-66
2021/08/31 01:59:57;;;;;;;11.52;8.43;;;;;;;13.23;100.00;99088.88;5007560;28;20057;-65
2021/08/31 02:02:22;;;;;;;14.32;9.13;;;;;;;13.21;100.00;99093.69;5007496;28;20026;-66
2021/08/31 02:04:48;;;;;;;15.82;9.75;;;;;;;13.18;100.00;99085.97;5012849;28;20475;-66
2021/08/31 02:07:13;;;;;;;14.52;9.80;;;;;;;13.21;100.00;99101.00;5004823;28;20045;-66
2021/08/31 02:09:38;;;;;;;17.95;9.43;;;;;;;13.25;100.00;99102.25;5012924;28;20071;-66
2021/08/31 02:12:04;;;;;;;11.55;7.95;;;;;;;13.28;100.00;99099.97;5003272;28;20076;-66
2021/08/31 02:14:29;;;;;;;18.27;8.93;;;;;;;13.43;100.00;99094.25;4993974;28;20423;-66
2021/08/31 02:16:55;;;;;;;12.82;8.63;;;;;;;13.38;100.00;99100.34;5003460;28;20041;-66
2021/08/31 02:19:20;;;;;;;11.95;8.48;;;;;;;13.42;100.00;99097.22;5012466;28;20107;-66
2021/08/31 02:21:45;;;;;;;14.48;8.75;;;;;;;13.42;100.00;99099.94;5007553;28;20459;-66
2021/08/31 02:24:11;;;;;;;10.38;7.47;;;;;;;13.43;100.00;99088.00;4994468;28;20026;-66
2021/08/31 02:26:37;;;;;;;11.15;8.27;;;;;;;13.45;100.00;99092.19;5002950;28;20100;-66
2021/08/31 02:29:02;;;;;;;12.55;8.40;;;;;;;13.46;100.00;99088.41;5013333;28;20026;-67
2021/08/31 02:31:28;;;;;;;12.15;8.55;;;;;;;13.52;100.00;99094.88;5008209;28;20019;-66
2021/08/31 02:33:53;;;;;;;12.57;8.63;;;;;;;13.43;100.00;99082.56;5023783;28;20104;-66
2021/08/31 02:36:18;;;;;;;12.82;8.48;;;;;;;13.50;100.00;99088.81;5004050;28;20487;-66
2021/08/31 02:38:43;;;;;;;11.50;7.97;;;;;;;13.43;100.00;99086.13;5013531;28;20030;-66
2021/08/31 02:41:09;;;;;;;13.38;8.35;;;;;;;13.51;100.00;99102.19;5008002;28;20034;-66
2021/08/31 02:43:34;;;;;;;14.35;8.13;;;;;;;13.54;100.00;99106.34;4993347;28;20019;-66
2021/08/31 02:45:59;;;;;;;12.55;8.02;;;;;;;13.75;100.00;99097.06;4993925;28;20423;-66
2021/08/31 02:48:25;;;;;;;12.80;7.57;;;;;;;13.63;100.00;99105.06;5006289;28;20032;-66
2021/08/31 02:50:50;;;;;;;15.23;7.30;;;;;;;13.61;100.00;99101.72;5008894;28;20024;-66
2021/08/31 02:53:15;;;;;;;11.00;7.18;;;;;;;13.52;100.00;99094.88;5009526;28;20034;-66
2021/08/31 02:55:41;;;;;;;12.90;7.68;;;;;;;13.61;100.00;99109.88;5005566;28;20058;-67
2021/08/31 02:58:06;;;;;;;10.75;7.60;;;;;;;13.63;100.00;99104.25;4993411;28;20117;-67
2021/08/31 03:00:32;;;;;;;12.05;7.15;;;;;;;13.64;100.00;99108.63;5007705;28;20109;-66
2021/08/31 03:02:58;;;;;;;10.52;7.30;;;;;;;13.66;100.00;99101.09;5014550;28;20022;-66
2021/08/31 03:05:24;;;;;;;15.75;8.90;;;;;;;13.67;100.00;99114.44;5006940;28;20032;-69
2021/08/31 03:07:51;;;;;;;11.50;7.90;;;;;;;13.68;100.00;99110.69;5015810;28;20030;-66
2021/08/31 03:10:16;;;;;;;11.73;7.55;;;;;;;13.69;100.00;99109.63;5015714;28;20034;-68
2021/08/31 03:12:41;;;;;;;12.70;7.70;;;;;;;13.69;100.00;99101.47;5015220;28;20041;-66
2021/08/31 03:15:07;;;;;;;10.43;7.22;;;;;;;13.69;100.00;99115.06;5014065;28;20037;-66
2021/08/31 03:17:32;;;;;;;11.30;7.95;;;;;;;13.69;100.00;99104.19;5014864;28;20395;-66
2021/08/31 03:19:57;;;;;;;13.07;7.90;;;;;;;13.63;100.00;99106.97;5004623;28;20029;-66
2021/08/31 03:22:23;;;;;;;10.82;7.55;;;;;;;13.58;100.00;99107.59;5014885;28;20026;-66
2021/08/31 03:24:48;;;;;;;11.00;8.02;;;;;;;13.51;100.00;99102.19;5008730;28;20105;-66
2021/08/31 03:27:14;;;;;;;12.20;7.70;;;;;;;13.44;100.00;99106.81;5010181;28;20117;-66
2021/08/31 03:29:39;;;;;;;12.13;7.88;;;;;;;13.37;100.00;99114.97;5000524;28;20103;-66
2021/08/31 03:32:05;;;;;;;11.80;7.18;;;;;;;13.27;100.00;99105.63;5015750;28;20029;-66
2021/08/31 03:34:30;;;;;;;13.38;8.30;;;;;;;13.19;100.00;99106.66;5014178;28;20036;-66
2021/08/31 03:36:55;;;;;;;12.00;8.73;;;;;;;13.12;100.00;99112.06;5014960;28;20120;-66
2021/08/31 03:39:21;;;;;;;14.82;8.35;;;;;;;13.03;100.00;99117.97;5015904;28;20034;-66
2021/08/31 03:41:47;;;;;;;14.93;8.05;;;;;;;12.99;100.00;99109.38;5015538;28;20209;-66
2021/08/31 03:44:13;;;;;;;13.15;8.35;;;;;;;13.04;100.00;99122.34;5014228;28;20044;-65
2021/08/31 03:46:38;;;;;;;11.77;8.25;;;;;;;12.99;100.00;99114.81;5015512;28;20558;-66
2021/08/31 03:49:03;;;;;;;16.73;8.07;;;;;;;12.99;100.00;99119.44;5009390;28;20036;-66
2021/08/31 03:51:28;;;;;;;12.93;8.48;;;;;;;12.87;100.00;99111.94;5014469;28;20092;-67
2021/08/31 03:53:54;;;;;;;13.43;8.20;;;;;;;12.78;100.00;99106.91;5014248;28;20026;-66
2021/08/31 03:56:19;;;;;;;16.98;9.15;;;;;;;12.84;100.00;99125.94;5001555;28;20500;-67
2021/08/31 03:58:45;;;;;;;11.88;8.27;;;;;;;12.86;100.00;99133.84;4998883;28;20062;-66
2021/08/31 04:01:10;;;;;;;11.32;7.50;;;;;;;12.88;100.00;99138.03;5000079;28;20026;-66
2021/08/31 04:03:35;;;;;;;14.40;7.93;;;;;;;12.98;100.00;99144.94;5002198;28;20065;-66
2021/08/31 04:06:01;;;;;;;15.70;7.68;;;;;;;13.05;100.00;99145.75;5013409;28;20030;-66
2021/08/31 04:08:26;;;;;;;13.40;8.18;;;;;;;13.10;100.00;99151.41;5014283;28;20064;-66
2021/08/31 04:10:52;;;;;;;12.23;7.75;;;;;;;13.13;100.00;99145.53;5013788;28;20379;-66
2021/08/31 04:13:18;;;;;;;13.40;8.45;;;;;;;13.18;100.00;99143.03;5001650;28;20391;-68
2021/08/31 04:15:45;;;;;;;12.68;8.07;;;;;;;13.13;100.00;99142.81;5013215;28;20394;-75
2021/08/31 04:18:10;;;;;;;13.73;8.07;;;;;;;13.15;100.00;99146.13;5014347;28;20030;-76
2021/08/31 04:20:35;;;;;;;11.63;8.00;;;;;;;13.13;100.00;99143.66;5010472;28;20405;-76
2021/08/31 04:23:01;;;;;;;12.80;7.28;;;;;;;13.25;100.00;99157.41;5014106;28;20030;-77
2021/08/31 04:25:26;;;;;;;12.65;7.82;;;;;;;13.24;100.00;99155.75;5014632;28;20395;-78
2021/08/31 04:27:52;;;;;;;13.63;7.93;;;;;;;13.32;100.00;99152.00;5014681;28;20026;-76
2021/08/31 04:30:17;;;;;;;15.50;7.90;;;;;;;13.29;100.00;99149.72;5013920;28;20033;-76
2021/08/31 04:32:42;;;;;;;10.18;7.28;;;;;;;13.21;100.00;99147.19;5016488;28;20036;-75
2021/08/31 04:35:08;;;;;;;16.33;8.77;;;;;;;13.27;100.00;99158.06;5009122;28;20036;-76
2021/08/31 04:37:33;;;;;;;10.98;7.22;;;;;;;13.25;100.00;99157.41;5006868;28;20069;-72
2021/08/31 04:40:00;;;;;;;12.70;8.93;;;;;;;13.32;100.00;99160.97;5010658;28;20096;-72
2021/08/31 04:42:26;;;;;;;12.63;8.10;;;;;;;13.37;100.00;99169.34;5003398;28;20427;-72
2021/08/31 04:44:52;;;;;;;12.93;8.15;;;;;;;13.37;100.00;99172.06;5013634;28;20026;-73
2021/08/31 04:47:17;;;;;;;13.45;8.10;;;;;;;13.32;100.00;99157.44;5008222;28;20102;-74
2021/08/31 04:49:43;;;;;;;12.63;7.72;;;;;;;13.41;100.00;99166.19;5007351;28;20026;-73
2021/08/31 04:52:09;;;;;;;16.73;8.13;;;;;;;13.41;100.00;99160.75;5014572;28;20026;-71
2021/08/31 04:54:35;;;;;;;13.27;8.35;;;;;;;13.31;100.00;99148.47;5002182;28;20033;-72
2021/08/31 04:57:00;;;;;;;12.93;7.95;;;;;;;13.30;100.00;99154.91;4998879;28;20029;-74
2021/08/31 04:59:25;;;;;;;12.50;8.18;;;;;;;13.37;100.00;99163.06;5013106;28;20092;-76
2021/08/31 05:01:51;;;;;;;11.93;7.38;;;;;;;13.48;100.00;99176.00;5011501;28;20919;-76
2021/08/31 05:04:17;;;;;;;16.67;8.43;;;;;;;13.55;100.00;99178.72;5005641;28;20049;-74
2021/08/31 05:06:43;;;;;;;13.02;8.18;;;;;;;13.45;100.00;99157.41;5011765;28;20101;-75
2021/08/31 05:09:09;;;;;;;11.48;8.20;;;;;;;13.54;100.00;99172.41;5014838;28;20753;-73
2021/08/31 05:11:35;;;;;;;12.40;8.00;;;;;;;13.60;100.00;99184.34;5015080;28;20041;-73
2021/08/31 05:14:01;;;;;;;12.45;8.40;;;;;;;13.64;100.00;99182.84;5013527;28;20022;-73
2021/08/31 05:16:26;;;;;;;13.80;8.10;;;;;;;13.62;100.00;99181.41;5013561;28;20080;-74
2021/08/31 05:18:51;;;;;;;12.40;8.00;;;;;;;13.69;100.00;99190.38;5011753;28;20021;-74
2021/08/31 05:21:17;;;;;;;11.18;7.95;;;;;;;13.75;100.00;99184.06;5009694;28;20088;-73
2021/08/31 05:23:42;;;;;;;12.60;8.00;;;;;;;13.80;100.00;99192.44;5012916;28;20025;-75
2021/08/31 05:26:08;;;;;;;13.88;8.27;;;;;;;13.77;100.00;99179.25;5011912;28;20113;-75
2021/08/31 05:28:33;;;;;;;14.02;8.65;;;;;;;13.85;100.00;99205.38;5012469;28;20025;-70
2021/08/31 05:30:58;;;;;;;10.75;7.95;;;;;;;13.94;100.00;99204.94;5011834;28;20033;-72
2021/08/31 05:33:24;;;;;;;12.80;8.43;;;;;;;13.90;100.00;99191.97;5006138;28;20026;-71
2021/08/31 05:35:49;;;;;;;17.42;8.88;;;;;;;14.01;100.00;99202.19;4994875;28;20061;-70
2021/08/31 05:38:14;;;;;;;14.80;8.60;;;;;;;14.04;100.00;99209.91;4994532;28;20025;-71
2021/08/31 05:40:40;;;;;;;16.60;9.00;;;;;;;14.03;100.00;99209.06;5011360;28;20030;-71
2021/08/31 05:43:05;;;;;;;13.70;8.55;;;;;;;14.09;100.00;99214.69;5013627;28;20145;-70
2021/08/31 05:45:32;;;;;;;14.68;8.02;;;;;;;14.09;100.00;99207.38;5008553;28;20046;-71
2021/08/31 05:48:04;;;;;;;12.65;7.78;;;;;;;14.15;100.00;99209.25;5042208;28;20781;-70
2021/08/31 05:50:29;;;;;;;15.35;8.32;;;;;;;14.13;100.00;99203.19;5027642;28;20029;-71
2021/08/31 05:52:54;;;;;;;10.95;7.35;;;;;;;14.34;100.00;99222.97;5016861;28;20030;-70
2021/08/31 05:55:20;;;;;;;13.27;7.93;;;;;;;14.44;100.00;99216.00;5019201;28;20030;-70
2021/08/31 05:57:45;;;;;;;10.50;7.63;;;;;;;14.43;100.00;99208.84;5036176;28;20120;-71
2021/08/31 06:00:11;;;;;;;11.65;8.32;;;;;;;14.48;100.00;99211.75;5027818;28;20025;-70
2021/08/31 06:02:42;;;;;;;10.77;7.35;;;;;;;14.61;100.00;99210.88;5036044;28;20041;-70
2021/08/31 06:05:07;;;;;;;11.52;6.40;;;;;;;14.66;100.00;99219.22;5040649;28;20038;-68
2021/08/31 06:07:34;;;;;;;13.52;8.20;;;;;;;14.85;100.00;99224.75;5034896;28;20102;-67
2021/08/31 06:10:04;;;;;;;11.05;7.50;;;;;;;14.86;100.00;99219.09;5038313;28;20071;-67
2021/08/31 06:12:29;;;;;;;11.88;7.15;;;;;;;14.93;99.48;99229.09;5045415;28;20030;-67
2021/08/31 06:14:54;;;;;;;11.60;7.07;;;;;;;14.94;99.06;99242.53;5042410;28;20025;-67
2021/08/31 06:17:21;;;;;;;10.63;7.60;;;;;;;14.96;100.00;99240.41;5044339;28;20113;-70
2021/08/31 06:19:46;;;;;;;10.07;7.03;;;;;;;15.09;98.50;99226.69;5040844;28;20080;-70
2021/08/31 06:22:12;;;;;;;10.65;7.13;;;;;;;14.88;97.93;99211.56;5038267;28;20025;-70
2021/08/31 06:24:37;;;;;;;12.90;6.88;;;;;;;15.24;97.22;99239.13;5039334;28;20029;-72
2021/08/31 06:27:04;;;;;;;15.93;7.38;;;;;;;15.19;96.01;99244.41;5032985;28;20036;-77
2021/08/31 06:29:29;;;;;;;8.60;6.82;;;;;;;15.21;96.36;99242.31;5041891;28;20037;-77
2021/08/31 06:31:55;;;;;;;9.20;6.55;;;;;;;15.42;95.70;99250.06;5036970;28;20030;-69
2021/08/31 06:34:20;;;;;;;13.30;7.13;;;;;;;15.38;95.45;99248.88;5037015;28;20033;-71
2021/08/31 06:36:45;;;;;;;9.18;7.28;;;;;;;15.42;95.55;99241.91;5041222;28;20037;-74
2021/08/31 06:39:11;;;;;;;11.27;7.13;;;;;;;15.33;94.89;99235.91;5036021;28;20053;-72
2021/08/31 06:41:36;;;;;;;10.48;6.95;;;;;;;15.52;93.56;99249.56;5032286;28;20072;-73
2021/08/31 06:44:01;;;;;;;9.77;6.78;;;;;;;15.57;94.02;99253.28;5029044;28;20075;-74
2021/08/31 06:46:27;;;;;;;9.02;6.18;;;;;;;15.75;93.69;99235.31;5027792;28;20472;-70
2021/08/31 06:48:52;;;;;;;9.18;6.85;;;;;;;16.08;91.06;99239.56;5028431;28;20034;-66
2021/08/31 06:51:17;;;;;;;9.90;6.90;;;;;;;16.26;90.01;99234.06;5029334;28;20029;-75
2021/08/31 06:53:42;;;;;;;10.45;6.30;;;;;;;16.55;88.95;99232.41;5027305;28;20505;-67
2021/08/31 06:56:08;;;;;;;8.57;5.88;;;;;;;16.63;86.78;99243.00;5028824;28;20030;-69
2021/08/31 06:58:34;;;;;;;12.27;6.82;;;;;;;16.55;87.75;99247.97;5019995;28;20029;-69
2021/08/31 07:01:00;;;;;;;10.65;7.20;;;;;;;16.47;87.37;99248.31;5016202;28;20025;-68
2021/08/31 07:03:25;;;;;;;12.60;6.53;;;;;;;16.59;87.19;99238.25;5016160;28;20034;-68
2021/08/31 07:05:51;;;;;;;8.80;5.80;;;;;;;16.89;85.80;99231.97;5016151;28;20088;-68
2021/08/31 07:08:16;;;;;;;12.52;7.10;;;;;;;16.88;83.90;99227.56;5010697;28;20069;-74
2021/08/31 07:10:42;;;;;;;7.53;5.90;;;;;;;16.99;84.43;99241.25;5011436;28;20096;-74
2021/08/31 07:13:08;;;;;;;10.77;7.28;;;;;;;16.97;85.60;99256.22;5023757;28;20094;-74
2021/08/31 07:15:34;;;;;;;54.75;33.65;;;;;;;16.83;85.94;99261.88;5024149;28;20026;-66
2021/08/31 07:17:59;;;;;;;11.95;8.93;;;;;;;16.72;86.21;99264.56;5028418;28;20022;-68
2021/08/31 07:20:25;;;;;;;26.77;18.42;;;;;;;16.71;86.51;99247.31;5030453;28;20100;-71
2021/08/31 07:22:50;;;;;;;15.52;11.57;;;;;;;16.68;85.57;99261.44;5027476;28;20080;-72
2021/08/31 07:25:16;;;;;;;23.88;21.05;;;;;;;16.61;86.29;99252.50;5030157;28;20024;-69
2021/08/31 07:27:41;;;;;;;12.38;8.95;;;;;;;16.53;85.37;99261.88;5031053;28;20026;-72
2021/08/31 07:30:07;;;;;;;9.98;6.57;;;;;;;16.73;85.38;99279.88;5025716;28;20041;-68
2021/08/31 07:32:33;;;;;;;14.00;8.00;;;;;;;16.73;84.94;99277.97;5025590;28;20140;-66
2021/08/31 07:34:58;;;;;;;9.65;7.00;;;;;;;17.05;84.23;99278.56;5029966;28;20026;-67
2021/08/31 07:37:23;;;;;;;12.15;5.80;;;;;;;17.36;83.25;99281.28;5029738;28;20041;-70
2021/08/31 07:39:49;;;;;;;8.18;5.55;;;;;;;17.43;83.47;99282.81;5026891;28;20042;-67
2021/08/31 07:42:14;;;;;;;11.18;5.95;;;;;;;17.56;79.78;99280.94;5031128;28;20032;-66
2021/08/31 07:44:39;;;;;;;8.27;5.72;;;;;;;17.68;80.03;99277.13;5030993;28;20026;-66
2021/08/31 07:47:05;;;;;;;6.93;5.05;;;;;;;18.10;79.34;99281.63;5031076;28;20568;-67
2021/08/31 07:49:31;;;;;;;10.05;5.43;;;;;;;18.32;79.21;99287.31;5031108;28;20438;-69
2021/08/31 07:51:56;;;;;;;6.55;5.32;;;;;;;18.48;77.89;99281.06;5040304;22;20095;-69
2021/08/31 07:54:21;;;;;;;8.80;5.43;;;;;;;18.66;76.70;99273.75;5021072;28;20076;-69
2021/08/31 07:56:47;;;;;;;6.50;4.78;;;;;;;19.22;73.61;99280.28;5020273;28;20075;-69
2021/08/31 07:59:13;;;;;;;7.07;5.30;;;;;;;19.23;73.02;99279.19;5033889;28;20550;-69
2021/08/31 08:01:38;;;;;;;6.72;4.88;;;;;;;19.04;73.60;99293.13;5026884;28;20033;-69
2021/08/31 08:04:04;;;;;;;5.90;4.57;;;;;;;18.96;73.92;99277.06;5048061;28;20028;-69
2021/08/31 08:06:29;;;;;;;8.05;4.95;;;;;;;18.98;73.62;99285.91;5051739;28;20041;-69
2021/08/31 08:08:55;;;;;;;9.07;4.93;;;;;;;19.02;73.79;99267.88;5052998;28;20020;-69
2021/08/31 08:11:21;;;;;;;6.57;4.78;;;;;;;19.05;72.61;99305.78;5051430;28;20070;-69
2021/08/31 08:13:47;;;;;;;6.53;4.60;;;;;;;18.97;73.91;99311.66;5052763;28;20029;-69
2021/08/31 08:16:12;;;;;;;8.18;4.78;;;;;;;18.58;75.29;99308.69;5052861;28;20462;-69
2021/08/31 08:18:37;;;;;;;6.70;4.68;;;;;;;18.45;74.30;99311.69;5052256;28;20104;-69
2021/08/31 08:21:03;;;;;;;8.52;4.90;;;;;;;18.12;75.22;99313.19;5050892;28;20098;-69
2021/08/31 08:23:28;;;;;;;8.75;4.88;;;;;;;17.87;76.92;99304.41;5051899;28;20540;-69
2021/08/31 08:25:54;;;;;;;5.18;4.10;;;;;;;18.05;77.05;99317.13;5052975;28;20021;-69
2021/08/31 08:28:21;;;;;;;8.73;4.88;;;;;;;17.94;76.35;99325.09;5051457;28;20497;-69
2021/08/31 08:30:47;;;;;;;5.90;4.53;;;;;;;17.90;77.24;99323.09;5051592;28;20017;-69
2021/08/31 08:33:12;;;;;;;8.50;5.07;;;;;;;18.02;76.10;99323.06;5051634;28;20028;-69
2021/08/31 08:35:38;;;;;;;7.80;5.15;;;;;;;18.10;75.99;99323.56;5033131;28;20078;-69
2021/08/31 08:38:03;;;;;;;8.75;5.25;;;;;;;18.18;74.62;99327.81;5043299;28;20028;-69
2021/08/31 08:40:30;;;;;;;6.15;4.63;;;;;;;18.00;75.79;99328.81;5051353;28;20470;-69
2021/08/31 08:42:56;;;;;;;5.20;4.00;;;;;;;18.45;75.15;99321.84;5051036;28;20040;-69
2021/08/31 08:45:22;;;;;;;5.88;4.40;;;;;;;18.63;74.17;99321.66;5050709;28;20078;-72
2021/08/31 08:47:47;;;;;;;6.45;4.70;;;;;;;18.58;74.95;99324.31;5052268;28;20422;-72
2021/08/31 08:50:13;;;;;;;8.18;4.90;;;;;;;19.04;73.67;99323.28;5052597;28;20391;-68
2021/08/31 08:52:39;;;;;;;6.47;4.53;;;;;;;19.29;70.69;99324.03;5051555;28;20544;-71
2021/08/31 08:55:09;;;;;;;8.27;4.82;;;;;;;19.85;69.75;99320.28;5052564;28;20029;-68
2021/08/31 08:57:34;;;;;;;8.70;4.15;;;;;;;19.72;67.77;99325.31;5051940;28;20025;-67
2021/08/31 08:59:59;;;;;;;7.53;4.50;;;;;;;19.83;67.27;99314.25;5047047;28;20075;-75
2021/08/31 09:02:39;;;;;;;7.43;4.22;;;;;;;19.92;68.65;99331.13;5051463;28;20036;-73
2021/08/31 09:05:10;;;;;;;6.63;4.72;;;;;;;19.84;68.41;99332.38;5050937;28;20049;-78
2021/08/31 09:07:37;;;;;;;5.38;4.40;;;;;;;20.03;67.57;99332.09;5050965;28;20474;-75
2021/08/31 09:10:15;;;;;;;10.05;4.72;;;;;;;19.79;68.80;99332.28;5052121;28;20028;-76
2021/08/31 09:12:41;;;;;;;6.15;4.47;;;;;;;19.42;69.13;99338.25;5053271;28;20029;-77
2021/08/31 09:15:27;;;;;;;7.22;3.95;;;;;;;19.00;69.63;99352.31;5046772;28;20025;-78
2021/08/31 09:18:10;;;;;;;7.50;4.57;;;;;;;19.00;71.84;99349.56;5047650;28;20044;-77
2021/08/31 09:20:39;;;;;;;7.38;4.45;;;;;;;18.79;72.55;99353.81;5052293;28;20071;-75
2021/08/31 09:23:07;;;;;;;5.15;3.90;;;;;;;18.65;70.99;99354.28;5062663;28;20028;-77
2021/08/31 09:25:33;;;;;;;6.43;3.97;;;;;;;18.85;72.03;99351.16;5053396;28;20025;-72
2021/08/31 09:27:59;;;;;;;6.53;4.03;;;;;;;18.74;72.25;99348.19;5051242;28;20025;-72
2021/08/31 09:30:28;;;;;;;5.72;3.85;;;;;;;18.57;72.80;99348.09;5053729;28;20443;-74
2021/08/31 09:33:15;;;;;;;8.70;4.38;;;;;;;18.17;74.15;99346.16;5053766;28;20025;-78
2021/08/31 09:35:47;;;;;;;6.78;3.85;;;;;;;18.02;75.59;99355.94;5032527;28;20045;-76
2021/08/31 09:38:15;;;;;;;8.55;4.28;;;;;;;18.08;75.99;99355.81;5049419;28;20494;-75
2021/08/31 09:40:47;;;;;;;6.80;4.38;;;;;;;17.70;75.80;99329.72;5051207;28;20032;-73
2021/08/31 09:43:17;;;;;;;8.38;4.55;;;;;;;18.11;75.77;99358.09;5051380;28;20020;-72
2021/08/31 09:45:45;;;;;;;6.10;4.43;;;;;;;18.27;75.62;99358.44;5052399;28;20066;-74
2021/08/31 09:48:12;;;;;;;8.18;4.68;;;;;;;18.66;73.15;99353.22;5051714;28;20065;-74
2021/08/31 09:50:43;;;;;;;6.82;4.00;;;;;;;18.97;71.20;99355.53;5052720;28;20075;-77
2021/08/31 09:53:10;;;;;;;7.50;3.78;;;;;;;19.60;69.37;99350.91;5051485;28;20494;-72
2021/08/31 09:55:37;;;;;;;8.50;3.85;;;;;;;20.45;66.34;99348.88;5050756;28;20071;-71
2021/08/31 09:58:33;;;;;;;7.15;3.95;;;;;;;20.90;65.81;99347.81;5051026;28;20025;-76
2021/08/31 10:00:59;;;;;;;5.07;4.20;;;;;;;21.13;62.57;99360.47;5043561;28;20037;-73
2021/08/31 10:03:25;;;;;;;5.90;3.97;;;;;;;21.59;61.29;99349.94;5049443;28;20043;-72
2021/08/31 10:05:53;;;;;;;7.65;4.10;;;;;;;22.06;60.49;99340.06;5045205;28;20032;-71
2021/08/31 10:08:19;;;;;;;7.75;3.47;;;;;;;22.23;59.11;99354.53;5051186;28;20043;-71
2021/08/31 10:10:48;;;;;;;4.95;3.42;;;;;;;22.61;59.00;99348.94;5052050;28;20098;-74
2021/08/31 10:13:16;;;;;;;8.55;3.85;;;;;;;22.83;57.17;99352.34;5055544;28;20425;-77
2021/08/31 10:15:46;;;;;;;4.85;3.38;;;;;;;22.64;58.69;99354.78;5052912;28;20028;-78
2021/08/31 10:18:13;;;;;;;7.22;3.83;;;;;;;22.33;58.35;99344.69;5053285;28;20021;-80
2021/08/31 10:20:46;;;;;;;5.88;4.03;;;;;;;22.89;57.76;99342.16;5052853;28;20082;-79
2021/08/31 10:23:16;;;;;;;6.90;3.85;;;;;;;22.48;56.12;99350.28;5052099;28;20025;-81
2021/08/31 10:25:41;;;;;;;3.80;3.28;;;;;;;23.43;54.58;99347.28;5049111;28;20076;-69
2021/08/31 10:28:23;;;;;;;8.18;3.72;;;;;;;23.57;53.86;99350.31;5051137;28;20059;-74
2021/08/31 10:30:49;;;;;;;4.78;3.55;;;;;;;23.35;54.61;99343.13;5051578;28;20375;-75
2021/08/31 10:33:36;;;;;;;7.85;3.80;;;;;;;23.22;54.33;99349.19;5051398;28;20025;-71
2021/08/31 10:36:05;;;;;;;6.30;3.53;;;;;;;23.22;55.19;99332.63;5053705;28;20033;-71
2021/08/31 10:38:46;;;;;;;5.32;3.65;;;;;;;23.01;55.24;99336.44;5051441;28;20052;-70
2021/08/31 10:41:30;;;;;;;6.03;3.60;;;;;;;22.94;56.93;99361.50;5052244;28;20029;-71
2021/08/31 10:43:56;;;;;;;5.45;4.00;;;;;;;22.57;57.92;99336.81;5043094;28;20030;-72
2021/08/31 10:46:21;;;;;;;5.55;3.65;;;;;;;22.24;57.62;99345.19;5037166;28;20080;-76
2021/08/31 10:49:01;;;;;;;6.80;3.50;;;;;;;22.16;58.25;99364.13;5055088;28;20021;-73
2021/08/31 10:51:26;;;;;;;3.95;3.13;;;;;;;22.40;56.97;99368.16;5048842;28;20104;-71
2021/08/31 10:53:52;;;;;;;6.40;3.65;;;;;;;22.72;56.16;99362.53;5037224;28;20107;-73
2021/08/31 10:56:23;;;;;;;5.95;4.15;;;;;;;23.36;55.92;99366.88;5054798;28;20091;-73
2021/08/31 10:58:53;;;;;;;5.22;3.55;;;;;;;25.43;52.20;99375.28;5051050;28;20032;-71
2021/08/31 11:01:23;;;;;;;5.47;3.25;;;;;;;25.53;48.75;99358.59;5050495;28;20690;-74
2021/08/31 11:03:51;;;;;;;4.38;3.20;;;;;;;25.36;49.28;99353.47;5053963;28;20436;-74
2021/08/31 11:06:28;;;;;;;7.00;3.20;;;;;;;24.83;51.73;99355.94;5054185;28;20029;-74
2021/08/31 11:09:12;;;;;;;6.60;3.65;;;;;;;24.44;52.30;99353.00;5054186;28;20083;-72
2021/08/31 11:11:46;;;;;;;5.68;3.53;;;;;;;24.19;52.58;99363.03;5053090;28;20029;-71
2021/08/31 11:14:14;;;;;;;7.95;3.65;;;;;;;23.22;55.04;99368.50;5054783;28;20031;-73
2021/08/31 11:16:40;;;;;;;4.43;3.30;;;;;;;23.03;55.34;99356.31;5053380;28;20013;-73
2021/08/31 11:19:21;;;;;;;5.30;3.28;;;;;;;22.51;56.36;99355.25;5056858;28;20028;-75
2021/08/31 11:21:49;;;;;;;5.35;3.60;;;;;;;22.46;57.35;99369.84;5057894;28;20079;-74